Time;durP1;ratioP1;P1;durP2;ratioP2;P2;SDS_P1;SDS_P2;PMS_P1;PMS_P2;Temp;Humidity;BMP_temperature;BMP_pressure;BME280_temperature;BME280_humidity;BME280_pressure;Samples;Min_cycle;Max_cycle;Signal;HPM_P1;HPM_P2
2021/10/21 00:00:17;;;;;;;1.20;0.47;;;;;;;9.73;82.26;98331.16;4911048;29;20028;-73
2021/10/21 00:02:43;;;;;;;3.05;1.08;;;;;;;9.69;82.29;98360.19;4930414;29;20042;-73
2021/10/21 00:05:10;;;;;;;8.25;0.75;;;;;;;9.68;81.57;98366.75;4932449;29;20429;-74
2021/10/21 00:07:36;;;;;;;2.85;1.05;;;;;;;9.70;82.12;98373.53;4893361;29;20089;-73
2021/10/21 00:10:03;;;;;;;4.03;1.20;;;;;;;9.72;81.87;98367.75;4932724;29;20032;-73
2021/10/21 00:12:31;;;;;;;1.85;0.88;;;;;;;9.75;81.53;98383.50;4930223;29;20048;-72
2021/10/21 00:14:57;;;;;;;2.83;0.70;;;;;;;9.75;81.85;98394.41;4926350;29;20032;-74
2021/10/21 00:17:23;;;;;;;1.60;0.90;;;;;;;9.73;81.80;98407.59;4927814;29;20116;-72
2021/10/21 00:19:50;;;;;;;5.60;0.70;;;;;;;9.73;81.54;98413.84;4928587;29;20399;-73
2021/10/21 00:22:16;;;;;;;8.68;0.98;;;;;;;9.71;81.94;98413.34;4932243;29;20034;-74
2021/10/21 00:24:41;;;;;;;10.13;0.55;;;;;;;9.73;81.79;98424.75;4917997;29;20407;-71
2021/10/21 00:27:07;;;;;;;7.18;0.65;;;;;;;9.75;81.49;98429.91;4927357;29;20063;-73
2021/10/21 00:29:33;;;;;;;2.70;0.35;;;;;;;9.76;81.13;98447.91;4901085;29;20082;-73
2021/10/21 00:31:59;;;;;;;2.65;0.50;;;;;;;9.78;81.14;98468.31;4913512;29;20051;-73
2021/10/21 00:34:25;;;;;;;1.25;0.38;;;;;;;9.77;80.82;98466.69;4915760;29;20401;-73
2021/10/21 00:36:50;;;;;;;2.55;0.40;;;;;;;9.79;80.63;98478.09;4907437;29;20032;-72
2021/10/21 00:39:16;;;;;;;9.25;0.88;;;;;;;9.72;80.56;98487.84;4914256;29;20044;-72
2021/10/21 00:41:41;;;;;;;4.95;0.40;;;;;;;9.66;79.97;98487.16;4927067;29;20032;-73
2021/10/21 00:44:11;;;;;;;7.82;0.63;;;;;;;9.65;79.90;98498.38;4932269;29;20458;-73
2021/10/21 00:46:36;;;;;;;1.75;1.52;;;;;;;9.70;79.97;98520.09;4923564;29;20032;-73
2021/10/21 00:49:03;;;;;;;6.97;0.93;;;;;;;9.71;79.88;98524.44;4929549;29;20020;-72
2021/10/21 00:51:30;;;;;;;4.20;0.70;;;;;;;9.68;79.94;98530.50;4931029;29;20499;-74
2021/10/21 00:53:55;;;;;;;10.65;1.02;;;;;;;9.61;79.58;98537.19;4907177;29;20055;-74
2021/10/21 00:56:21;;;;;;;3.17;1.25;;;;;;;9.64;78.95;98548.59;4928151;29;20047;-74
2021/10/21 00:58:50;;;;;;;2.08;0.50;;;;;;;9.58;79.07;98548.72;4910406;29;20036;-74
2021/10/21 01:01:17;;;;;;;4.65;0.65;;;;;;;9.51;78.48;98564.69;4912873;29;20043;-73
2021/10/21 01:03:44;;;;;;;3.33;0.50;;;;;;;9.50;78.29;98574.00;4927766;29;20031;-75
2021/10/21 01:06:13;;;;;;;2.58;0.50;;;;;;;9.51;78.45;98589.25;4927085;29;20026;-75
2021/10/21 01:08:40;;;;;;;7.07;1.15;;;;;;;9.41;78.53;98603.09;4934330;29;20062;-73
2021/10/21 01:11:06;;;;;;;2.60;0.82;;;;;;;9.37;78.34;98613.00;4930391;29;20054;-73
2021/10/21 01:13:32;;;;;;;4.28;0.57;;;;;;;9.38;78.64;98620.88;4934929;29;20046;-73
2021/10/21 01:16:10;;;;;;;2.20;0.55;;;;;;;9.44;77.99;98638.75;4920732;29;20042;-74
2021/10/21 01:18:36;;;;;;;3.10;0.50;;;;;;;9.35;78.01;98637.84;4928714;29;20024;-74
2021/10/21 01:21:03;;;;;;;3.67;0.50;;;;;;;9.39;77.85;98643.53;4924902;29;20477;-74
2021/10/21 01:23:29;;;;;;;2.05;0.55;;;;;;;9.30;77.96;98640.69;4927157;29;20046;-74
2021/10/21 01:25:54;;;;;;;3.42;0.63;;;;;;;9.37;77.88;98670.28;4928375;29;20118;-73
2021/10/21 01:28:20;;;;;;;2.17;0.55;;;;;;;9.34;78.11;98668.97;4932290;29;20059;-74
2021/10/21 01:30:45;;;;;;;2.30;0.40;;;;;;;9.32;77.99;98675.84;4919153;29;20036;-74
2021/10/21 01:33:11;;;;;;;7.45;0.65;;;;;;;9.28;78.15;98688.47;4930297;29;20107;-74
2021/10/21 01:35:37;;;;;;;6.13;0.50;;;;;;;9.28;77.71;98693.91;4935393;29;20154;-74
2021/10/21 01:38:03;;;;;;;1.60;0.38;;;;;;;9.30;77.58;98700.69;4927226;29;20024;-73
2021/10/21 01:40:29;;;;;;;7.38;0.50;;;;;;;9.33;77.68;98700.09;4924544;29;20028;-73
2021/10/21 01:42:54;;;;;;;5.28;1.00;;;;;;;9.25;78.00;98709.75;4924305;29;20051;-74
2021/10/21 01:45:32;;;;;;;4.88;0.52;;;;;;;9.28;77.63;98715.72;4930661;29;20032;-73
2021/10/21 01:48:02;;;;;;;4.13;0.50;;;;;;;9.24;77.84;98719.06;4928133;29;20122;-76
2021/10/21 01:50:29;;;;;;;2.47;0.57;;;;;;;9.24;78.17;98723.69;4922912;29;20110;-74
2021/10/21 01:52:55;;;;;;;2.85;0.70;;;;;;;9.17;78.35;98728.72;4912640;29;20472;-75
2021/10/21 01:55:21;;;;;;;5.43;0.57;;;;;;;9.22;78.12;98734.91;4930805;29;20250;-75
2021/10/21 01:57:47;;;;;;;9.75;1.10;;;;;;;9.17;77.96;98729.53;4922881;29;20119;-75
2021/10/21 02:00:18;;;;;;;5.80;1.15;;;;;;;9.14;78.21;98729.31;4918639;29;20378;-75
2021/10/21 02:02:45;;;;;;;7.28;0.75;;;;;;;9.16;77.65;98744.28;4915976;29;20023;-76
2021/10/21 02:05:12;;;;;;;2.72;0.40;;;;;;;9.13;77.22;98750.34;4923472;29;20327;-76
2021/10/21 02:07:38;;;;;;;1.98;0.63;;;;;;;9.12;77.56;98748.69;4918257;29;20119;-76
2021/10/21 02:10:08;;;;;;;7.90;1.02;;;;;;;9.17;76.82;98750.53;4915547;29;20083;-75
2021/10/21 02:12:34;;;;;;;6.10;1.30;;;;;;;9.18;76.58;98752.97;4932764;29;20450;-75
2021/10/21 02:15:00;;;;;;;10.60;1.20;;;;;;;9.18;75.95;98757.63;4928897;29;20042;-76
2021/10/21 02:17:25;;;;;;;4.60;0.75;;;;;;;9.22;76.05;98759.44;4926094;29;20038;-76
2021/10/21 02:19:52;;;;;;;5.47;0.63;;;;;;;9.19;75.32;98753.78;4935813;29;20032;-76
2021/10/21 02:22:18;;;;;;;4.93;0.63;;;;;;;9.26;74.72;98765.94;4931526;29;20381;-75
2021/10/21 02:24:45;;;;;;;4.85;0.68;;;;;;;9.23;74.99;98772.00;4902205;29;20127;-76
2021/10/21 02:27:11;;;;;;;8.60;0.75;;;;;;;9.20;74.68;98772.59;4929526;29;20091;-73
2021/10/21 02:29:37;;;;;;;2.63;0.77;;;;;;;9.23;74.31;98791.06;4914325;29;20039;-74
2021/10/21 02:32:03;;;;;;;1.25;0.43;;;;;;;9.24;73.84;98789.97;4923337;29;20035;-73
2021/10/21 02:34:28;;;;;;;3.15;0.50;;;;;;;9.27;74.41;98799.47;4912030;29;20062;-74
2021/10/21 02:36:54;;;;;;;1.88;0.55;;;;;;;9.30;74.05;98814.44;4932086;29;20099;-73
2021/10/21 02:39:19;;;;;;;6.07;0.65;;;;;;;9.26;74.46;98836.06;4916032;29;20508;-75
2021/10/21 02:41:45;;;;;;;4.20;0.38;;;;;;;9.26;74.64;98820.47;4925479;29;20078;-75
2021/10/21 02:44:10;;;;;;;7.47;0.60;;;;;;;9.17;74.98;98822.28;4922058;29;20540;-74
2021/10/21 02:46:36;;;;;;;4.45;0.60;;;;;;;9.19;74.77;98825.50;4920930;29;20485;-75
2021/10/21 02:49:02;;;;;;;5.47;0.50;;;;;;;9.24;74.87;98832.78;4893537;29;20173;-75
2021/10/21 02:51:28;;;;;;;2.63;1.45;;;;;;;9.15;75.06;98827.19;4911542;29;20028;-75
2021/10/21 02:53:53;;;;;;;8.63;0.88;;;;;;;9.05;76.09;98840.97;4915284;29;20048;-75
2021/10/21 02:56:19;;;;;;;4.53;0.55;;;;;;;9.09;75.98;98847.47;4910615;29;20028;-74
2021/10/21 02:58:44;;;;;;;8.60;0.90;;;;;;;9.13;75.75;98836.78;4928442;29;20035;-76
2021/10/21 03:01:10;;;;;;;0.80;0.40;;;;;;;9.07;75.98;98844.25;4932304;29;20362;-76
2021/10/21 03:03:35;;;;;;;6.53;0.80;;;;;;;9.11;76.09;98856.16;4915102;29;20042;-74
2021/10/21 03:06:00;;;;;;;5.47;0.95;;;;;;;9.02;75.57;98850.56;4916985;29;20024;-74
2021/10/21 03:08:26;;;;;;;7.35;1.05;;;;;;;8.97;76.09;98860.75;4928086;29;20036;-75
2021/10/21 03:10:54;;;;;;;2.70;0.60;;;;;;;8.98;76.63;98867.78;4896730;29;20034;-75
2021/10/21 03:13:19;;;;;;;3.72;0.90;;;;;;;9.00;76.26;98876.50;4910876;29;20027;-76
2021/10/21 03:15:45;;;;;;;4.03;0.68;;;;;;;8.99;76.25;98896.69;4917133;29;20043;-74
2021/10/21 03:18:10;;;;;;;9.27;0.60;;;;;;;8.94;75.96;98877.69;4905807;29;20042;-75
2021/10/21 03:20:36;;;;;;;2.10;0.47;;;;;;;8.96;75.91;98881.72;4916149;29;20031;-75
2021/10/21 03:23:02;;;;;;;7.90;0.60;;;;;;;8.93;75.45;98876.84;4910638;29;20034;-75
2021/10/21 03:25:28;;;;;;;2.30;0.43;;;;;;;8.97;75.37;98882.56;4924860;29;20027;-74
2021/10/21 03:27:53;;;;;;;3.75;0.55;;;;;;;8.98;74.90;98886.88;4932631;29;20027;-75
2021/10/21 03:30:19;;;;;;;5.07;0.63;;;;;;;9.02;74.95;98896.09;4896416;29;20398;-74
2021/10/21 03:32:45;;;;;;;2.83;0.63;;;;;;;9.01;74.61;98899.94;4927820;29;20420;-74
2021/10/21 03:35:10;;;;;;;5.20;0.63;;;;;;;9.02;74.60;98896.09;4933001;29;20074;-74
2021/10/21 03:37:37;;;;;;;1.55;0.60;;;;;;;9.02;74.38;98904.28;4911680;29;20031;-74
2021/10/21 03:40:04;;;;;;;14.60;0.73;;;;;;;8.97;74.28;98912.53;4923346;29;20086;-73
2021/10/21 03:42:29;;;;;;;5.13;0.80;;;;;;;8.96;74.44;98908.19;4924172;29;20051;-74
2021/10/21 03:44:57;;;;;;;6.28;0.57;;;;;;;8.95;74.34;98917.47;4891087;29;20036;-73
2021/10/21 03:47:23;;;;;;;3.90;0.55;;;;;;;8.86;75.01;98915.41;4926187;29;20036;-73
2021/10/21 03:49:52;;;;;;;3.92;0.77;;;;;;;8.87;74.82;98924.38;4926921;29;20162;-73
2021/10/21 03:52:19;;;;;;;3.97;1.17;;;;;;;8.84;74.84;98928.50;4928083;29;20034;-74
2021/10/21 03:54:45;;;;;;;7.75;0.50;;;;;;;8.80;75.32;98930.16;4931168;29;20056;-72
2021/10/21 03:57:13;;;;;;;3.15;0.30;;;;;;;8.73;75.81;98921.53;4911958;29;20039;-72
2021/10/21 03:59:39;;;;;;;16.92;0.90;;;;;;;8.70;76.07;98927.56;4909610;29;20039;-74
2021/10/21 04:02:04;;;;;;;4.80;0.50;;;;;;;8.70;76.27;98944.75;4892069;29;20028;-73
2021/10/21 04:04:32;;;;;;;3.80;0.75;;;;;;;8.69;76.44;98943.13;4914718;29;20046;-74
2021/10/21 04:06:58;;;;;;;7.90;1.05;;;;;;;8.69;77.03;98955.94;4917574;29;20047;-72
2021/10/21 04:09:24;;;;;;;3.95;0.57;;;;;;;8.64;76.88;98954.06;4932186;29;20036;-73
2021/10/21 04:11:49;;;;;;;1.92;0.43;;;;;;;8.66;77.06;98954.59;4919205;29;20032;-73
2021/10/21 04:14:15;;;;;;;2.50;0.45;;;;;;;8.60;77.41;98954.94;4913525;29;20046;-73
2021/10/21 04:16:40;;;;;;;1.75;0.45;;;;;;;8.65;77.07;98969.31;4920506;29;20044;-74
2021/10/21 04:19:06;;;;;;;10.07;1.10;;;;;;;8.62;77.38;98952.75;4934408;29;20050;-74
2021/10/21 04:21:34;;;;;;;3.53;0.65;;;;;;;8.64;77.72;98955.97;4938022;29;20027;-74
2021/10/21 04:23:59;;;;;;;4.03;1.13;;;;;;;8.55;77.51;98948.44;4920044;29;20209;-74
2021/10/21 04:26:24;;;;;;;1.65;0.55;;;;;;;8.66;78.00;98967.38;4902561;29;20073;-74
2021/10/21 04:28:50;;;;;;;4.07;0.73;;;;;;;8.59;77.67;98942.44;4934654;29;20038;-73
2021/10/21 04:31:16;;;;;;;6.53;0.55;;;;;;;8.63;77.96;98967.97;4926797;29;20051;-74
2021/10/21 04:33:42;;;;;;;3.30;0.47;;;;;;;8.64;78.04;98975.06;4933051;29;20031;-76
2021/10/21 04:36:08;;;;;;;2.65;0.65;;;;;;;8.66;78.68;98970.13;4930747;29;20040;-74
2021/10/21 04:38:33;;;;;;;9.95;1.33;;;;;;;8.62;78.10;98980.78;4928786;29;20038;-73
2021/10/21 04:40:59;;;;;;;2.55;0.38;;;;;;;8.59;78.90;98991.47;4922781;29;20027;-72
2021/10/21 04:43:24;;;;;;;3.85;0.50;;;;;;;8.60;78.72;99004.81;4923168;29;20102;-72
2021/10/21 04:45:50;;;;;;;1.63;0.55;;;;;;;8.59;78.99;99002.38;4896516;29;20026;-72
2021/10/21 04:48:16;;;;;;;2.72;0.50;;;;;;;8.62;79.07;99018.16;4912026;29;20532;-72
2021/10/21 04:50:41;;;;;;;4.28;0.52;;;;;;;8.60;79.46;99020.31;4926263;29;20043;-74
2021/10/21 04:53:07;;;;;;;8.82;0.73;;;;;;;8.58;79.26;99023.34;4929277;29;20078;-73
2021/10/21 04:55:35;;;;;;;5.00;0.43;;;;;;;8.64;78.95;99040.47;4876395;29;20045;-73
2021/10/21 04:58:05;;;;;;;4.28;0.52;;;;;;;8.59;79.47;99041.31;4902884;29;20037;-74
2021/10/21 05:00:31;;;;;;;0.75;0.30;;;;;;;8.77;79.39;99052.59;4908218;29;20040;-73
2021/10/21 05:03:20;;;;;;;11.02;0.60;;;;;;;8.99;78.51;99060.28;4896417;29;20096;-73
2021/10/21 05:05:48;;;;;;;1.20;0.40;;;;;;;9.01;77.58;99052.63;4891176;29;20060;-74
2021/10/21 05:08:16;;;;;;;2.47;0.60;;;;;;;9.17;77.50;99073.19;4896627;29;20035;-74
2021/10/21 05:10:41;;;;;;;8.68;0.75;;;;;;;9.25;76.87;99075.25;4892155;29;20096;-74
2021/10/21 05:13:06;;;;;;;1.50;0.20;;;;;;;9.29;77.03;99085.59;4902285;29;20417;-74
2021/10/21 05:15:32;;;;;;;11.60;0.88;;;;;;;9.40;76.67;99103.47;4893674;29;20033;-74
2021/10/21 05:17:57;;;;;;;6.53;0.30;;;;;;;9.44;76.57;99112.69;4896858;29;20032;-73
2021/10/21 05:20:23;;;;;;;3.28;0.32;;;;;;;9.40;77.65;99114.38;4892720;29;20386;-73
2021/10/21 05:22:48;;;;;;;2.78;0.47;;;;;;;9.44;77.77;99115.44;4890103;29;20024;-74
2021/10/21 05:25:14;;;;;;;10.75;0.63;;;;;;;9.49;77.31;99126.31;4890906;29;20044;-75
2021/10/21 05:27:39;;;;;;;7.00;0.60;;;;;;;9.53;77.29;99134.72;4889879;29;20382;-73
2021/10/21 05:30:07;;;;;;;4.63;0.57;;;;;;;9.55;77.62;99133.31;4906577;29;20036;-74
2021/10/21 05:32:33;;;;;;;4.63;0.57;;;;;;;9.56;77.49;99137.69;4893263;29;20103;-74
2021/10/21 05:35:20;;;;;;;3.83;0.55;;;;;;;9.62;77.66;99149.34;4892261;29;20436;-74
2021/10/21 05:37:48;;;;;;;5.18;0.68;;;;;;;9.50;78.26;99141.56;4893484;29;20040;-73
2021/10/21 05:40:17;;;;;;;3.38;0.60;;;;;;;9.51;78.76;99151.38;4893138;29;20037;-75
2021/10/21 05:42:42;;;;;;;2.65;0.60;;;;;;;9.46;79.76;99156.88;4889020;29;20028;-73
2021/10/21 05:45:08;;;;;;;5.47;0.73;;;;;;;9.47;80.03;99168.63;4892947;29;20081;-74
2021/10/21 05:47:35;;;;;;;2.60;0.50;;;;;;;9.34;81.02;99170.13;4889771;29;20021;-74
2021/10/21 05:50:02;;;;;;;4.18;0.60;;;;;;;9.31;80.44;99181.59;4883852;29;20378;-74
2021/10/21 05:52:27;;;;;;;11.35;0.82;;;;;;;9.25;81.14;99187.09;4893106;29;20029;-74
2021/10/21 05:54:53;;;;;;;3.33;0.57;;;;;;;9.29;81.39;99195.53;4928765;28;20076;-73
2021/10/21 05:57:23;;;;;;;2.13;0.40;;;;;;;9.31;81.48;99204.22;4902165;29;20088;-73
2021/10/21 05:59:48;;;;;;;3.20;0.47;;;;;;;9.23;82.07;99181.13;4897367;29;20085;-73
2021/10/21 06:02:15;;;;;;;3.83;0.50;;;;;;;9.28;81.95;99198.56;4894435;29;20424;-72
2021/10/21 06:04:40;;;;;;;2.03;0.50;;;;;;;9.32;81.29;99205.06;4894419;29;20048;-74
2021/10/21 06:07:08;;;;;;;7.78;0.80;;;;;;;9.30;81.96;99219.00;4887398;29;20037;-74
2021/10/21 06:09:33;;;;;;;3.15;0.40;;;;;;;9.30;81.76;99213.53;4901678;29;20021;-74
2021/10/21 06:11:59;;;;;;;2.85;0.40;;;;;;;9.43;81.07;99218.31;4889306;29;20037;-73
2021/10/21 06:14:24;;;;;;;6.18;0.85;;;;;;;9.44;81.27;99235.50;4885180;29;20132;-72
2021/10/21 06:16:50;;;;;;;2.92;0.88;;;;;;;9.44;81.65;99232.75;4888928;29;20036;-71
2021/10/21 06:19:16;;;;;;;7.30;0.63;;;;;;;9.43;81.05;99229.22;4886563;29;20029;-74
2021/10/21 06:21:46;;;;;;;2.83;0.57;;;;;;;9.53;80.91;99249.34;4880021;29;20071;-74
2021/10/21 06:24:15;;;;;;;5.35;0.82;;;;;;;9.49;80.55;99248.28;4880933;29;20052;-73
2021/10/21 06:26:41;;;;;;;3.83;0.40;;;;;;;9.55;81.18;99264.31;4888091;29;20033;-73
2021/10/21 06:29:07;;;;;;;1.80;0.50;;;;;;;9.56;81.10;99274.16;4879263;29;20157;-73
2021/10/21 06:31:32;;;;;;;5.88;0.75;;;;;;;9.65;80.53;99289.88;4882140;29;20388;-73
2021/10/21 06:33:58;;;;;;;2.67;0.70;;;;;;;9.71;80.71;99299.66;4886311;29;20132;-74
2021/10/21 06:36:25;;;;;;;4.28;0.50;;;;;;;9.78;80.16;99309.16;4891247;29;20029;-74
2021/10/21 06:38:51;;;;;;;0.85;0.35;;;;;;;9.69;78.59;99301.84;4886408;29;20033;-72
2021/10/21 06:41:16;;;;;;;2.92;0.93;;;;;;;9.62;77.00;99310.38;4885193;29;20080;-73
2021/10/21 06:43:42;;;;;;;2.03;0.70;;;;;;;9.57;76.89;99332.25;4888665;29;20087;-73
2021/10/21 06:46:08;;;;;;;0.45;0.28;;;;;;;9.54;77.01;99339.09;4886553;29;20037;-74
2021/10/21 06:48:34;;;;;;;7.60;0.85;;;;;;;9.55;76.60;99346.19;4879226;29;20029;-72
2021/10/21 06:51:00;;;;;;;1.13;0.50;;;;;;;9.54;75.92;99343.75;4884303;29;20040;-73
2021/10/21 06:53:28;;;;;;;4.13;0.57;;;;;;;9.58;75.62;99345.63;4887437;29;20402;-74
2021/10/21 06:55:53;;;;;;;4.38;0.80;;;;;;;9.55;74.34;99348.94;4894089;29;20043;-72
2021/10/21 06:58:19;;;;;;;4.47;0.77;;;;;;;9.58;72.74;99348.34;4924550;29;21580;-73
2021/10/21 07:00:44;;;;;;;4.43;0.73;;;;;;;9.60;70.88;99362.50;4923561;29;20039;-71
2021/10/21 07:03:10;;;;;;;4.22;0.80;;;;;;;9.59;69.22;99369.09;4904691;29;20044;-73
2021/10/21 07:05:41;;;;;;;2.78;0.70;;;;;;;9.64;69.65;99364.66;4926708;29;20036;-73
2021/10/21 07:08:07;;;;;;;3.60;0.80;;;;;;;9.64;68.24;99378.31;4922979;29;20023;-72
2021/10/21 07:10:33;;;;;;;3.70;0.63;;;;;;;9.59;67.28;99395.56;4931092;29;20095;-73
2021/10/21 07:13:03;;;;;;;3.60;1.35;;;;;;;9.51;66.94;99399.72;4923258;29;20036;-75
2021/10/21 07:15:33;;;;;;;2.97;1.20;;;;;;;9.49;67.62;99417.47;4918384;29;20039;-74
2021/10/21 07:17:59;;;;;;;5.05;0.60;;;;;;;9.40;67.67;99415.34;4924226;29;20039;-72
2021/10/21 07:20:28;;;;;;;0.65;0.30;;;;;;;9.39;67.11;99423.81;4929744;29;20035;-73
2021/10/21 07:22:53;;;;;;;3.00;0.98;;;;;;;9.34;67.31;99432.03;4919984;29;20032;-74
2021/10/21 07:25:19;;;;;;;2.47;0.60;;;;;;;9.29;67.17;99451.13;4929742;29;20086;-73
2021/10/21 07:27:45;;;;;;;3.15;0.70;;;;;;;9.14;66.24;99466.50;4903076;29;20035;-74
2021/10/21 07:30:14;;;;;;;2.00;0.55;;;;;;;9.17;66.15;99471.41;4916099;29;20500;-73
2021/10/21 07:32:41;;;;;;;1.38;1.10;;;;;;;9.09;64.80;99474.72;4926397;29;20028;-74
2021/10/21 07:35:07;;;;;;;7.47;0.90;;;;;;;9.03;64.85;99487.53;4925188;29;20718;-74
2021/10/21 07:37:33;;;;;;;3.13;0.50;;;;;;;9.01;64.82;99495.19;4912345;29;20066;-74
2021/10/21 07:39:58;;;;;;;6.72;1.10;;;;;;;9.00;64.38;99500.94;4916703;29;20489;-73
2021/10/21 07:42:24;;;;;;;3.83;0.60;;;;;;;8.98;64.51;99511.28;4901472;29;20484;-73
2021/10/21 07:44:49;;;;;;;11.52;1.48;;;;;;;8.87;62.54;99516.78;4933240;29;20023;-73
2021/10/21 07:47:38;;;;;;;5.72;0.52;;;;;;;8.85;62.58;99543.50;4902608;29;20043;-73
2021/10/21 07:50:06;;;;;;;2.85;1.05;;;;;;;8.79;62.07;99536.44;4921229;29;20619;-73
2021/10/21 07:52:31;;;;;;;4.13;0.43;;;;;;;8.87;62.21;99554.94;4920332;29;20443;-72
2021/10/21 07:55:04;;;;;;;2.25;0.52;;;;;;;8.91;62.96;99563.41;4925803;29;20127;-73
2021/10/21 07:57:30;;;;;;;1.60;0.70;;;;;;;8.97;62.72;99569.66;4928354;29;20131;-73
2021/10/21 07:59:55;;;;;;;6.38;0.98;;;;;;;9.46;62.98;99571.66;4929710;29;20039;-74
2021/10/21 08:02:30;;;;;;;0.38;0.30;;;;;;;10.23;62.62;99584.06;4928339;29;20031;-74
2021/10/21 08:04:59;;;;;;;1.25;0.47;;;;;;;10.86;59.05;99579.75;4931165;29;20032;-72
2021/10/21 08:07:32;;;;;;;0.43;0.30;;;;;;;11.45;57.48;99597.72;4926506;29;20047;-73
2021/10/21 08:09:57;;;;;;;1.13;0.55;;;;;;;11.98;55.87;99615.97;4901464;29;20035;-73
2021/10/21 08:12:26;;;;;;;4.35;0.50;;;;;;;12.36;55.21;99621.44;4931972;29;20114;-73
2021/10/21 08:15:10;;;;;;;2.33;0.30;;;;;;;12.64;52.00;99627.03;4919121;29;20067;-73
2021/10/21 08:17:47;;;;;;;;;;;;;;;;;;;;;
2021/10/21 08:20:13;;;;;;;1.67;0.70;;;;;;;13.22;49.57;99641.44;4930006;29;20038;-74
2021/10/21 08:22:45;;;;;;;1.10;0.40;;;;;;;13.42;50.15;99668.53;4930434;29;20028;-74
2021/10/21 08:25:13;;;;;;;0.47;0.30;;;;;;;13.61;48.38;99675.91;4928735;29;20039;-75
2021/10/21 08:27:40;;;;;;;1.63;0.52;;;;;;;13.84;47.76;99682.28;4930060;29;20024;-78
2021/10/21 08:30:07;;;;;;;1.75;0.47;;;;;;;14.21;48.61;99710.66;4930080;29;20032;-79
2021/10/21 08:32:32;;;;;;;1.30;0.30;;;;;;;14.63;48.31;99711.44;4932568;29;20020;-77
2021/10/21 08:34:58;;;;;;;2.15;0.50;;;;;;;14.94;46.83;99720.91;4934479;29;20099;-77
2021/10/21 08:37:50;;;;;;;0.82;0.22;;;;;;;15.24;46.82;99713.78;4933332;29;20059;-76
2021/10/21 08:40:16;;;;;;;3.85;0.22;;;;;;;15.40;44.83;99711.47;4913298;29;20099;-76
2021/10/21 08:42:56;;;;;;;1.00;0.40;;;;;;;15.77;45.65;99728.69;4940664;29;20028;-76
2021/10/21 08:45:29;;;;;;;0.85;0.30;;;;;;;16.27;45.40;99730.31;4922087;29;20103;-76
2021/10/21 08:48:01;;;;;;;1.05;0.40;;;;;;;16.60;43.34;99738.16;4917292;29;20031;-76
2021/10/21 08:50:27;;;;;;;4.30;0.40;;;;;;;17.07;43.52;99743.09;4930818;29;20070;-76
2021/10/21 08:52:53;;;;;;;0.85;0.30;;;;;;;17.37;42.30;99745.94;4922192;29;20484;-76
2021/10/21 08:55:18;;;;;;;2.75;0.73;;;;;;;17.55;40.71;99764.13;4933256;29;20055;-77
2021/10/21 08:57:44;;;;;;;0.77;0.30;;;;;;;17.69;40.36;99752.03;4913103;29;20028;-75
2021/10/21 09:00:11;;;;;;;0.90;0.30;;;;;;;18.09;40.67;99760.03;4917000;29;20043;-77
2021/10/21 09:07:57;;;;;;;1.13;0.43;;;;;;;18.65;36.98;99774.53;4930214;29;21172;-76
2021/10/21 09:10:26;;;;;;;1.70;0.50;;;;;;;18.73;37.74;99778.38;4910468;29;20028;-76
2021/10/21 09:12:52;;;;;;;0.22;0.10;;;;;;;18.97;37.51;99788.03;4924018;29;20035;-75
2021/10/21 09:15:23;;;;;;;3.42;0.50;;;;;;;19.19;35.99;99797.94;4929872;29;20407;-75
2021/10/21 09:17:51;;;;;;;0.88;0.40;;;;;;;19.31;36.32;99797.19;4924247;29;20115;-75
2021/10/21 09:20:31;;;;;;;0.20;0.20;;;;;;;19.67;37.25;99799.28;4911696;29;20114;-75
2021/10/21 09:23:05;;;;;;;0.85;0.60;;;;;;;20.27;36.67;99815.59;4931887;29;20031;-71
2021/10/21 09:25:31;;;;;;;6.13;0.47;;;;;;;20.68;36.45;99829.59;4927689;29;20390;-74
2021/10/21 09:28:38;;;;;;;0.80;0.45;;;;;;;21.17;34.63;99837.03;4914061;29;20047;-74
2021/10/21 09:31:10;;;;;;;2.47;0.43;;;;;;;21.37;34.83;99838.81;4916101;29;20042;-75
2021/10/21 09:34:10;;;;;;;1.10;0.40;;;;;;;22.03;35.73;99836.63;4907514;29;20035;-74
2021/10/21 09:36:36;;;;;;;0.47;0.40;;;;;;;22.59;34.17;99846.81;4913860;29;20039;-77
2021/10/21 09:39:31;;;;;;;1.67;0.60;;;;;;;22.99;31.70;99853.31;4918032;29;20024;-78
2021/10/21 09:41:59;;;;;;;1.65;0.43;;;;;;;23.01;31.23;99862.09;4893288;29;20570;-73
2021/10/21 09:44:29;;;;;;;2.78;0.52;;;;;;;23.29;32.33;99861.13;4920307;29;20086;-74
2021/10/21 09:49:55;;;;;;;1.45;0.38;;;;;;;24.04;29.80;99875.81;4928692;29;20043;-74
2021/10/21 09:52:24;;;;;;;0.80;0.45;;;;;;;24.42;30.11;99888.03;4932987;29;20035;-74
2021/10/21 09:54:51;;;;;;;0.38;0.28;;;;;;;24.53;29.08;99882.63;4926652;29;20048;-73
2021/10/21 09:57:18;;;;;;;0.20;0.13;;;;;;;24.79;29.76;99883.88;4910862;29;20054;-73
2021/10/21 09:59:45;;;;;;;0.75;0.45;;;;;;;25.23;28.55;99886.09;4927967;29;20027;-74
2021/10/21 10:02:17;;;;;;;0.40;0.30;;;;;;;25.58;28.58;99901.75;4928692;29;20082;-74
2021/10/21 10:04:54;;;;;;;2.22;0.60;;;;;;;25.68;26.31;99903.88;4924446;29;20012;-74
2021/10/21 10:07:50;;;;;;;0.25;0.20;;;;;;;25.52;26.75;99898.47;4919403;29;20028;-73
2021/10/21 10:10:15;;;;;;;3.20;0.15;;;;;;;26.11;28.32;99923.22;4925564;29;20039;-75
2021/10/21 10:12:41;;;;;;;0.30;0.30;;;;;;;26.57;27.40;99917.22;4898527;29;20028;-74
2021/10/21 10:15:07;;;;;;;0.43;0.35;;;;;;;27.23;28.14;99919.31;4923292;29;20365;-74
2021/10/21 10:17:32;;;;;;;0.80;0.30;;;;;;;27.69;25.93;99935.63;4901018;29;20038;-74
2021/10/21 10:19:58;;;;;;;1.40;0.30;;;;;;;28.04;26.37;99934.16;4909975;29;20052;-77
2021/10/21 10:22:33;;;;;;;1.83;0.43;;;;;;;28.44;25.41;99945.47;4926133;29;20024;-74
2021/10/21 10:24:59;;;;;;;0.98;0.22;;;;;;;28.63;25.76;99947.13;4930293;29;20067;-75
2021/10/21 10:27:28;;;;;;;3.05;1.33;;;;;;;29.10;25.46;99946.31;4927728;29;20059;-74
2021/10/21 10:30:38;;;;;;;1.20;0.45;;;;;;;29.48;23.99;99960.72;4937242;29;20027;-77
2021/10/21 10:33:17;;;;;;;0.77;0.40;;;;;;;29.78;24.92;99963.03;4923795;29;20040;-76
2021/10/21 10:35:48;;;;;;;1.13;0.43;;;;;;;29.98;21.45;99966.19;4906801;29;20067;-75
2021/10/21 10:38:13;;;;;;;2.60;0.20;;;;;;;29.84;22.29;99967.06;4913933;29;20385;-76
2021/10/21 10:40:57;;;;;;;4.60;0.30;;;;;;;30.02;21.72;99955.72;4921403;29;20032;-75
2021/10/21 10:47:23;;;;;;;0.45;0.30;;;;;;;30.64;21.00;99984.34;4910544;29;20465;-71
2021/10/21 10:49:50;;;;;;;0.77;0.50;;;;;;;30.13;20.62;100008.41;4891025;29;20032;-72
2021/10/21 10:53:07;;;;;;;0.95;0.30;;;;;;;30.31;21.30;99994.22;4890104;29;20047;-73
2021/10/21 11:00:01;;;;;;;1.85;0.50;;;;;;;31.26;22.28;100015.69;4911444;29;20110;-75
2021/10/21 11:06:34;;;;;;;;;;;;;;;;;;;;;
2021/10/21 11:09:07;;;;;;;1.10;0.40;;;;;;;32.75;20.58;100030.47;4890162;29;20033;-74
2021/10/21 11:11:42;;;;;;;0.68;0.40;;;;;;;32.91;19.89;100026.97;4858001;29;20037;-73
2021/10/21 11:14:19;;;;;;;2.20;0.35;;;;;;;32.87;18.03;100032.72;4883693;29;20546;-72
2021/10/21 11:16:55;;;;;;;0.35;0.28;;;;;;;32.64;19.52;100039.09;4873446;29;20371;-73
2021/10/21 11:19:43;;;;;;;0.95;0.57;;;;;;;32.79;18.37;100053.88;4890951;29;20041;-73
2021/10/21 11:22:34;;;;;;;0.45;0.20;;;;;;;32.78;18.18;100052.25;4891532;29;20043;-76
2021/10/21 11:25:06;;;;;;;0.63;0.20;;;;;;;32.99;19.10;100048.28;4853571;29;20044;-78
2021/10/21 11:27:49;;;;;;;2.20;0.60;;;;;;;33.52;18.75;100059.94;4916611;29;20036;-78
2021/10/21 11:30:27;;;;;;;1.83;0.43;;;;;;;33.85;18.48;100059.34;4924624;29;20020;-77
2021/10/21 11:32:54;;;;;;;0.52;0.30;;;;;;;34.12;17.88;100081.13;4919942;29;20032;-75
2021/10/21 11:35:22;;;;;;;0.77;0.45;;;;;;;34.14;16.99;100075.78;4908746;29;20030;-75
2021/10/21 11:37:55;;;;;;;0.20;0.20;;;;;;;34.37;17.48;100072.09;4914413;29;20381;-74
2021/10/21 11:40:40;;;;;;;0.80;0.35;;;;;;;34.88;17.31;100075.41;4930974;29;20028;-75
2021/10/21 11:43:20;;;;;;;0.43;0.20;;;;;;;34.85;16.69;100073.44;4920290;29;20398;-76
2021/10/21 11:45:46;;;;;;;3.10;0.20;;;;;;;35.47;17.64;100082.06;4920707;29;20498;-73
2021/10/21 11:48:14;;;;;;;2.88;0.35;;;;;;;35.83;15.98;100077.47;4929263;29;20070;-76
2021/10/21 11:50:46;;;;;;;2.60;0.45;;;;;;;36.15;15.79;100090.78;4921267;29;20107;-71
2021/10/21 11:53:14;;;;;;;0.30;0.30;;;;;;;35.52;14.85;100088.47;4927194;29;20035;-70
2021/10/21 11:55:41;;;;;;;0.85;0.30;;;;;;;35.53;16.00;100092.88;4880575;29;20060;-73
2021/10/21 11:58:14;;;;;;;0.45;0.40;;;;;;;35.78;15.29;100098.72;4912932;29;20110;-73
2021/10/21 12:00:42;;;;;;;1.05;0.55;;;;;;;35.25;14.29;100090.34;4909165;29;20172;-72
2021/10/21 12:03:08;;;;;;;0.63;0.30;;;;;;;34.96;15.19;100101.59;4916344;29;20039;-72
2021/10/21 12:05:44;;;;;;;0.30;0.25;;;;;;;34.51;14.33;100105.03;4906586;29;20032;-71
2021/10/21 12:08:12;;;;;;;1.00;0.60;;;;;;;34.12;15.08;100101.75;4929603;29;20031;-71